sensor_id;sensor_type;location;lat;lon;timestamp;temperature;humidity
51855;DHT22;37895;53.240;6.572;2023-08-06T00:00:21;14.40;99.90
51855;DHT22;37895;53.240;6.572;2023-08-06T00:02:47;14.50;99.90
51855;DHT22;37895;53.240;6.572;2023-08-06T00:05:13;14.50;99.90
51855;DHT22;37895;53.240;6.572;2023-08-06T00:07:39;14.50;99.90
51855;DHT22;37895;53.240;6.572;2023-08-06T00:10:05;14.60;99.90
51855;DHT22;37895;53.240;6.572;2023-08-06T00:12:30;14.60;99.90
51855;DHT22;37895;53.240;6.572;2023-08-06T00:14:56;14.60;99.90
51855;DHT22;37895;53.240;6.572;2023-08-06T00:17:22;14.60;99.90
51855;DHT22;37895;53.240;6.572;2023-08-06T00:19:47;14.60;99.90
51855;DHT22;37895;53.240;6.572;2023-08-06T00:22:13;14.70;99.90
51855;DHT22;37895;53.240;6.572;2023-08-06T00:24:38;14.70;99.90
51855;DHT22;37895;53.240;6.572;2023-08-06T00:27:05;14.70;99.90
51855;DHT22;37895;53.240;6.572;2023-08-06T00:29:30;14.70;99.90
51855;DHT22;37895;53.240;6.572;2023-08-06T00:31:56;14.70;99.90
51855;DHT22;37895;53.240;6.572;2023-08-06T00:34:22;14.70;99.90
51855;DHT22;37895;53.240;6.572;2023-08-06T00:36:47;14.80;99.90
51855;DHT22;37895;53.240;6.572;2023-08-06T00:39:13;14.70;99.90
51855;DHT22;37895;53.240;6.572;2023-08-06T00:41:39;14.70;99.90
51855;DHT22;37895;53.240;6.572;2023-08-06T00:44:04;14.70;99.90
51855;DHT22;37895;53.240;6.572;2023-08-06T00:46:31;14.70;99.90
51855;DHT22;37895;53.240;6.572;2023-08-06T00:48:58;14.70;99.90
51855;DHT22;37895;53.240;6.572;2023-08-06T00:51:24;14.70;99.90
51855;DHT22;37895;53.240;6.572;2023-08-06T00:53:52;14.70;99.90
51855;DHT22;37895;53.240;6.572;2023-08-06T00:56:19;14.70;99.90
51855;DHT22;37895;53.240;6.572;2023-08-06T00:58:45;14.70;99.90
51855;DHT22;37895;53.240;6.572;2023-08-06T01:01:10;14.70;99.90
51855;DHT22;37895;53.240;6.572;2023-08-06T01:03:36;14.70;99.90
51855;DHT22;37895;53.240;6.572;2023-08-06T01:06:02;14.70;99.90
51855;DHT22;37895;53.240;6.572;2023-08-06T01:08:58;14.70;99.90
51855;DHT22;37895;53.240;6.572;2023-08-06T01:11:29;14.70;99.90
51855;DHT22;37895;53.240;6.572;2023-08-06T01:14:27;14.70;99.90
51855;DHT22;37895;53.240;6.572;2023-08-06T01:16:54;14.70;99.90
51855;DHT22;37895;53.240;6.572;2023-08-06T01:19:21;14.70;99.90
51855;DHT22;37895;53.240;6.572;2023-08-06T01:21:46;14.60;99.90
51855;DHT22;37895;53.240;6.572;2023-08-06T01:24:12;14.70;99.90
51855;DHT22;37895;53.240;6.572;2023-08-06T01:26:42;14.70;99.90
51855;DHT22;37895;53.240;6.572;2023-08-06T01:29:23;14.70;99.90
51855;DHT22;37895;53.240;6.572;2023-08-06T01:31:51;14.70;99.90
51855;DHT22;37895;53.240;6.572;2023-08-06T01:34:24;14.70;99.90
51855;DHT22;37895;53.240;6.572;2023-08-06T01:36:51;14.70;99.90
51855;DHT22;37895;53.240;6.572;2023-08-06T01:39:17;14.70;99.90
51855;DHT22;37895;53.240;6.572;2023-08-06T01:41:49;14.70;99.90
51855;DHT22;37895;53.240;6.572;2023-08-06T01:44:15;14.70;99.90
51855;DHT22;37895;53.240;6.572;2023-08-06T01:46:40;14.70;99.90
51855;DHT22;37895;53.240;6.572;2023-08-06T01:49:06;14.70;99.90
51855;DHT22;37895;53.240;6.572;2023-08-06T01:51:32;14.70;99.90
51855;DHT22;37895;53.240;6.572;2023-08-06T01:53:57;14.70;99.90
51855;DHT22;37895;53.240;6.572;2023-08-06T01:56:23;14.70;99.90
51855;DHT22;37895;53.240;6.572;2023-08-06T01:58:48;14.70;99.90
51855;DHT22;37895;53.240;6.572;2023-08-06T02:01:14;14.60;99.90
51855;DHT22;37895;53.240;6.572;2023-08-06T02:03:40;14.60;99.90
51855;DHT22;37895;53.240;6.572;2023-08-06T02:06:05;14.60;99.90
51855;DHT22;37895;53.240;6.572;2023-08-06T02:08:31;14.60;99.90
51855;DHT22;37895;53.240;6.572;2023-08-06T02:10:56;14.60;99.90
51855;DHT22;37895;53.240;6.572;2023-08-06T02:13:23;14.60;99.90
51855;DHT22;37895;53.240;6.572;2023-08-06T02:15:49;14.60;99.90
51855;DHT22;37895;53.240;6.572;2023-08-06T02:18:15;14.60;99.90
51855;DHT22;37895;53.240;6.572;2023-08-06T02:20:41;14.60;99.90
51855;DHT22;37895;53.240;6.572;2023-08-06T02:23:07;14.60;99.90
51855;DHT22;37895;53.240;6.572;2023-08-06T02:25:32;14.70;99.90
51855;DHT22;37895;53.240;6.572;2023-08-06T02:27:58;14.70;99.90
51855;DHT22;37895;53.240;6.572;2023-08-06T02:30:24;14.70;99.90
51855;DHT22;37895;53.240;6.572;2023-08-06T02:32:49;14.70;99.90
51855;DHT22;37895;53.240;6.572;2023-08-06T02:35:15;14.70;99.90
51855;DHT22;37895;53.240;6.572;2023-08-06T02:37:40;14.70;99.90
51855;DHT22;37895;53.240;6.572;2023-08-06T02:40:06;14.70;99.90
51855;DHT22;37895;53.240;6.572;2023-08-06T02:42:32;14.70;99.90
51855;DHT22;37895;53.240;6.572;2023-08-06T02:44:58;14.70;99.90
51855;DHT22;37895;53.240;6.572;2023-08-06T02:47:23;14.70;99.90
51855;DHT22;37895;53.240;6.572;2023-08-06T02:49:49;14.70;99.90
51855;DHT22;37895;53.240;6.572;2023-08-06T02:52:15;14.70;99.90
51855;DHT22;37895;53.240;6.572;2023-08-06T02:54:41;14.70;99.90
51855;DHT22;37895;53.240;6.572;2023-08-06T02:57:06;14.70;99.90
51855;DHT22;37895;53.240;6.572;2023-08-06T02:59:32;14.70;99.90
51855;DHT22;37895;53.240;6.572;2023-08-06T03:01:58;14.70;99.90
51855;DHT22;37895;53.240;6.572;2023-08-06T03:04:24;14.70;99.90
51855;DHT22;37895;53.240;6.572;2023-08-06T03:06:50;14.70;99.90
51855;DHT22;37895;53.240;6.572;2023-08-06T03:09:19;14.80;99.90
51855;DHT22;37895;53.240;6.572;2023-08-06T03:11:44;14.80;99.90
51855;DHT22;37895;53.240;6.572;2023-08-06T03:14:10;14.80;99.90
51855;DHT22;37895;53.240;6.572;2023-08-06T03:16:36;14.80;99.90
51855;DHT22;37895;53.240;6.572;2023-08-06T03:19:01;14.70;99.90
51855;DHT22;37895;53.240;6.572;2023-08-06T03:21:27;14.70;99.90
51855;DHT22;37895;53.240;6.572;2023-08-06T03:23:53;14.70;99.90
51855;DHT22;37895;53.240;6.572;2023-08-06T03:26:18;14.80;99.90
51855;DHT22;37895;53.240;6.572;2023-08-06T03:28:44;14.70;99.90
51855;DHT22;37895;53.240;6.572;2023-08-06T03:31:10;14.70;99.90
51855;DHT22;37895;53.240;6.572;2023-08-06T03:33:35;14.70;99.90
51855;DHT22;37895;53.240;6.572;2023-08-06T03:36:02;14.60;99.90
51855;DHT22;37895;53.240;6.572;2023-08-06T03:38:27;14.60;99.90
51855;DHT22;37895;53.240;6.572;2023-08-06T03:40:53;14.60;99.90
51855;DHT22;37895;53.240;6.572;2023-08-06T03:43:19;14.50;99.90
51855;DHT22;37895;53.240;6.572;2023-08-06T03:45:45;14.50;99.90
51855;DHT22;37895;53.240;6.572;2023-08-06T03:48:11;14.40;99.90
51855;DHT22;37895;53.240;6.572;2023-08-06T03:50:36;14.40;99.90
51855;DHT22;37895;53.240;6.572;2023-08-06T03:53:02;14.30;99.90
51855;DHT22;37895;53.240;6.572;2023-08-06T03:55:28;14.30;99.90
51855;DHT22;37895;53.240;6.572;2023-08-06T03:57:53;14.30;99.90
51855;DHT22;37895;53.240;6.572;2023-08-06T04:00:19;14.30;99.90
51855;DHT22;37895;53.240;6.572;2023-08-06T04:02:44;14.30;99.90
51855;DHT22;37895;53.240;6.572;2023-08-06T04:05:10;14.30;99.90
51855;DHT22;37895;53.240;6.572;2023-08-06T04:07:36;14.30;99.90
51855;DHT22;37895;53.240;6.572;2023-08-06T04:10:04;14.30;99.90
51855;DHT22;37895;53.240;6.572;2023-08-06T04:12:30;14.30;99.90
51855;DHT22;37895;53.240;6.572;2023-08-06T04:15:00;14.40;99.90
51855;DHT22;37895;53.240;6.572;2023-08-06T04:17:26;14.40;99.90
51855;DHT22;37895;53.240;6.572;2023-08-06T04:19:53;14.40;99.90
51855;DHT22;37895;53.240;6.572;2023-08-06T04:22:19;14.40;99.90
51855;DHT22;37895;53.240;6.572;2023-08-06T04:24:45;14.40;99.90
51855;DHT22;37895;53.240;6.572;2023-08-06T04:27:12;14.40;99.90
51855;DHT22;37895;53.240;6.572;2023-08-06T04:29:38;14.40;99.90
51855;DHT22;37895;53.240;6.572;2023-08-06T04:32:05;14.40;99.90
51855;DHT22;37895;53.240;6.572;2023-08-06T04:34:31;14.40;99.90
51855;DHT22;37895;53.240;6.572;2023-08-06T04:36:57;14.40;99.90
51855;DHT22;37895;53.240;6.572;2023-08-06T04:39:22;14.40;99.90
51855;DHT22;37895;53.240;6.572;2023-08-06T04:41:48;14.40;99.90
51855;DHT22;37895;53.240;6.572;2023-08-06T04:44:13;14.40;99.90
51855;DHT22;37895;53.240;6.572;2023-08-06T04:46:39;14.40;99.90
51855;DHT22;37895;53.240;6.572;2023-08-06T04:49:05;14.40;99.90
51855;DHT22;37895;53.240;6.572;2023-08-06T04:51:30;14.50;99.90
51855;DHT22;37895;53.240;6.572;2023-08-06T04:53:57;14.50;99.90
51855;DHT22;37895;53.240;6.572;2023-08-06T04:56:23;14.50;99.90
51855;DHT22;37895;53.240;6.572;2023-08-06T04:58:48;14.50;99.90
51855;DHT22;37895;53.240;6.572;2023-08-06T05:01:14;14.40;99.90
51855;DHT22;37895;53.240;6.572;2023-08-06T05:03:40;14.40;99.90
51855;DHT22;37895;53.240;6.572;2023-08-06T05:06:05;14.30;99.90
51855;DHT22;37895;53.240;6.572;2023-08-06T05:08:31;14.20;99.90
51855;DHT22;37895;53.240;6.572;2023-08-06T05:10:56;14.20;99.90
51855;DHT22;37895;53.240;6.572;2023-08-06T05:13:22;14.20;99.90
51855;DHT22;37895;53.240;6.572;2023-08-06T05:15:48;14.10;99.90
51855;DHT22;37895;53.240;6.572;2023-08-06T05:18:14;14.10;99.90
51855;DHT22;37895;53.240;6.572;2023-08-06T05:20:41;14.10;99.90
51855;DHT22;37895;53.240;6.572;2023-08-06T05:23:07;14.10;99.90
51855;DHT22;37895;53.240;6.572;2023-08-06T05:25:34;14.10;99.90
51855;DHT22;37895;53.240;6.572;2023-08-06T05:28:01;14.10;99.90
51855;DHT22;37895;53.240;6.572;2023-08-06T05:30:27;14.10;99.90
51855;DHT22;37895;53.240;6.572;2023-08-06T05:32:52;14.10;99.90
51855;DHT22;37895;53.240;6.572;2023-08-06T05:35:18;14.10;99.90
51855;DHT22;37895;53.240;6.572;2023-08-06T05:37:44;14.20;99.90
51855;DHT22;37895;53.240;6.572;2023-08-06T05:40:09;14.10;99.90
51855;DHT22;37895;53.240;6.572;2023-08-06T05:42:35;14.20;99.90
51855;DHT22;37895;53.240;6.572;2023-08-06T05:45:00;14.20;99.90
51855;DHT22;37895;53.240;6.572;2023-08-06T05:47:26;14.20;99.90
51855;DHT22;37895;53.240;6.572;2023-08-06T05:49:52;14.30;99.90
51855;DHT22;37895;53.240;6.572;2023-08-06T05:52:17;14.30;99.90
51855;DHT22;37895;53.240;6.572;2023-08-06T05:54:43;14.40;99.90
51855;DHT22;37895;53.240;6.572;2023-08-06T05:57:08;14.40;99.90
51855;DHT22;37895;53.240;6.572;2023-08-06T05:59:34;14.50;99.90
51855;DHT22;37895;53.240;6.572;2023-08-06T06:02:00;14.70;99.90
51855;DHT22;37895;53.240;6.572;2023-08-06T06:04:25;14.80;99.90
51855;DHT22;37895;53.240;6.572;2023-08-06T06:06:51;14.90;99.90
51855;DHT22;37895;53.240;6.572;2023-08-06T06:09:16;15.00;99.90
51855;DHT22;37895;53.240;6.572;2023-08-06T06:11:42;15.10;99.90
51855;DHT22;37895;53.240;6.572;2023-08-06T06:14:08;15.20;99.90
51855;DHT22;37895;53.240;6.572;2023-08-06T06:16:34;15.30;99.90
51855;DHT22;37895;53.240;6.572;2023-08-06T06:18:59;15.40;99.90
51855;DHT22;37895;53.240;6.572;2023-08-06T06:21:25;15.50;99.90
51855;DHT22;37895;53.240;6.572;2023-08-06T06:23:51;15.50;99.90
51855;DHT22;37895;53.240;6.572;2023-08-06T06:26:19;15.70;99.90
51855;DHT22;37895;53.240;6.572;2023-08-06T06:28:45;15.80;99.90
51855;DHT22;37895;53.240;6.572;2023-08-06T06:31:10;15.90;99.90
51855;DHT22;37895;53.240;6.572;2023-08-06T06:33:36;16.00;99.90
51855;DHT22;37895;53.240;6.572;2023-08-06T06:36:02;16.00;99.90
51855;DHT22;37895;53.240;6.572;2023-08-06T06:38:29;16.10;99.90
51855;DHT22;37895;53.240;6.572;2023-08-06T06:40:55;16.20;99.90
51855;DHT22;37895;53.240;6.572;2023-08-06T06:43:22;16.20;99.90
51855;DHT22;37895;53.240;6.572;2023-08-06T06:45:52;16.30;99.90
51855;DHT22;37895;53.240;6.572;2023-08-06T06:48:19;16.30;99.90
51855;DHT22;37895;53.240;6.572;2023-08-06T06:50:47;16.30;99.90
51855;DHT22;37895;53.240;6.572;2023-08-06T06:53:13;16.40;99.90
51855;DHT22;37895;53.240;6.572;2023-08-06T06:55:39;16.50;99.90
51855;DHT22;37895;53.240;6.572;2023-08-06T06:58:05;16.50;99.90
51855;DHT22;37895;53.240;6.572;2023-08-06T07:00:30;16.60;99.90
51855;DHT22;37895;53.240;6.572;2023-08-06T07:02:56;16.60;99.90
51855;DHT22;37895;53.240;6.572;2023-08-06T07:05:22;16.80;99.90
51855;DHT22;37895;53.240;6.572;2023-08-06T07:07:47;16.80;99.90
51855;DHT22;37895;53.240;6.572;2023-08-06T07:10:13;16.80;99.90
51855;DHT22;37895;53.240;6.572;2023-08-06T07:12:39;16.90;99.90
51855;DHT22;37895;53.240;6.572;2023-08-06T07:15:06;17.00;99.90
51855;DHT22;37895;53.240;6.572;2023-08-06T07:17:32;17.00;99.90
51855;DHT22;37895;53.240;6.572;2023-08-06T07:19:58;17.00;99.90
51855;DHT22;37895;53.240;6.572;2023-08-06T07:22:23;17.00;99.90
51855;DHT22;37895;53.240;6.572;2023-08-06T07:24:49;17.10;99.90
51855;DHT22;37895;53.240;6.572;2023-08-06T07:27:15;17.20;99.90
51855;DHT22;37895;53.240;6.572;2023-08-06T07:29:40;17.20;99.90
51855;DHT22;37895;53.240;6.572;2023-08-06T07:32:07;17.20;99.90
51855;DHT22;37895;53.240;6.572;2023-08-06T07:34:33;17.20;99.90
51855;DHT22;37895;53.240;6.572;2023-08-06T07:36:58;17.20;99.90
51855;DHT22;37895;53.240;6.572;2023-08-06T07:39:24;17.30;99.90
51855;DHT22;37895;53.240;6.572;2023-08-06T07:41:50;17.30;99.90
51855;DHT22;37895;53.240;6.572;2023-08-06T07:44:15;17.30;99.90
51855;DHT22;37895;53.240;6.572;2023-08-06T07:46:41;17.30;99.90
51855;DHT22;37895;53.240;6.572;2023-08-06T07:49:07;17.20;99.90
51855;DHT22;37895;53.240;6.572;2023-08-06T07:51:32;17.20;99.90
51855;DHT22;37895;53.240;6.572;2023-08-06T07:53:58;17.20;99.90
51855;DHT22;37895;53.240;6.572;2023-08-06T07:56:24;17.20;99.90
51855;DHT22;37895;53.240;6.572;2023-08-06T07:58:49;17.20;99.90
51855;DHT22;37895;53.240;6.572;2023-08-06T08:01:15;17.40;99.90
51855;DHT22;37895;53.240;6.572;2023-08-06T08:03:40;17.40;99.90
51855;DHT22;37895;53.240;6.572;2023-08-06T08:06:06;17.50;99.90
51855;DHT22;37895;53.240;6.572;2023-08-06T08:08:31;17.60;99.90
51855;DHT22;37895;53.240;6.572;2023-08-06T08:10:57;17.50;99.90
51855;DHT22;37895;53.240;6.572;2023-08-06T08:13:26;17.50;99.90
51855;DHT22;37895;53.240;6.572;2023-08-06T08:15:59;17.60;99.90
51855;DHT22;37895;53.240;6.572;2023-08-06T08:18:25;17.60;99.90
51855;DHT22;37895;53.240;6.572;2023-08-06T08:20:51;17.70;99.90
51855;DHT22;37895;53.240;6.572;2023-08-06T08:23:16;17.70;99.90
51855;DHT22;37895;53.240;6.572;2023-08-06T08:25:42;17.80;99.90
51855;DHT22;37895;53.240;6.572;2023-08-06T08:28:08;17.90;99.90
51855;DHT22;37895;53.240;6.572;2023-08-06T08:30:33;17.90;99.90
51855;DHT22;37895;53.240;6.572;2023-08-06T08:32:59;18.10;99.90
51855;DHT22;37895;53.240;6.572;2023-08-06T08:35:25;18.20;99.90
51855;DHT22;37895;53.240;6.572;2023-08-06T08:37:50;18.30;99.90
51855;DHT22;37895;53.240;6.572;2023-08-06T08:40:17;18.30;99.90
51855;DHT22;37895;53.240;6.572;2023-08-06T08:42:42;18.40;99.90
51855;DHT22;37895;53.240;6.572;2023-08-06T08:45:12;18.50;99.90
51855;DHT22;37895;53.240;6.572;2023-08-06T08:47:42;18.50;99.90
51855;DHT22;37895;53.240;6.572;2023-08-06T08:50:12;18.70;99.90
51855;DHT22;37895;53.240;6.572;2023-08-06T08:52:38;18.60;99.90
51855;DHT22;37895;53.240;6.572;2023-08-06T08:55:07;18.70;99.90
51855;DHT22;37895;53.240;6.572;2023-08-06T08:57:33;18.70;99.90
51855;DHT22;37895;53.240;6.572;2023-08-06T08:59:58;18.80;99.90
51855;DHT22;37895;53.240;6.572;2023-08-06T09:02:26;19.00;99.90
51855;DHT22;37895;53.240;6.572;2023-08-06T09:04:54;19.00;99.90
51855;DHT22;37895;53.240;6.572;2023-08-06T09:07:22;19.10;99.90
51855;DHT22;37895;53.240;6.572;2023-08-06T09:09:49;19.20;99.90
51855;DHT22;37895;53.240;6.572;2023-08-06T09:12:17;19.30;99.90
51855;DHT22;37895;53.240;6.572;2023-08-06T09:14:43;19.40;99.90
51855;DHT22;37895;53.240;6.572;2023-08-06T09:17:09;19.60;99.90
51855;DHT22;37895;53.240;6.572;2023-08-06T09:19:42;19.60;99.90
51855;DHT22;37895;53.240;6.572;2023-08-06T09:22:12;19.70;99.90
51855;DHT22;37895;53.240;6.572;2023-08-06T09:24:39;19.80;99.90
51855;DHT22;37895;53.240;6.572;2023-08-06T09:27:13;19.90;99.90
51855;DHT22;37895;53.240;6.572;2023-08-06T09:29:43;19.90;99.90
51855;DHT22;37895;53.240;6.572;2023-08-06T09:32:13;20.00;99.90
51855;DHT22;37895;53.240;6.572;2023-08-06T09:34:41;20.20;99.90
51855;DHT22;37895;53.240;6.572;2023-08-06T09:37:09;20.20;99.90
51855;DHT22;37895;53.240;6.572;2023-08-06T09:39:38;20.10;99.90
51855;DHT22;37895;53.240;6.572;2023-08-06T09:42:03;20.10;99.90
51855;DHT22;37895;53.240;6.572;2023-08-06T09:44:32;20.10;99.90
51855;DHT22;37895;53.240;6.572;2023-08-06T09:47:00;20.20;99.90
51855;DHT22;37895;53.240;6.572;2023-08-06T09:49:41;20.20;99.90
51855;DHT22;37895;53.240;6.572;2023-08-06T09:52:12;20.30;99.90
51855;DHT22;37895;53.240;6.572;2023-08-06T09:54:38;20.30;99.90
51855;DHT22;37895;53.240;6.572;2023-08-06T09:57:04;20.30;99.90
51855;DHT22;37895;53.240;6.572;2023-08-06T09:59:32;20.30;99.90
51855;DHT22;37895;53.240;6.572;2023-08-06T10:01:58;20.50;99.90
51855;DHT22;37895;53.240;6.572;2023-08-06T10:04:26;20.70;99.90
51855;DHT22;37895;53.240;6.572;2023-08-06T10:06:51;20.70;99.90
51855;DHT22;37895;53.240;6.572;2023-08-06T10:09:17;20.80;99.90
51855;DHT22;37895;53.240;6.572;2023-08-06T10:11:51;20.90;99.90
51855;DHT22;37895;53.240;6.572;2023-08-06T10:14:30;21.10;99.90
51855;DHT22;37895;53.240;6.572;2023-08-06T10:16:58;21.10;99.90
51855;DHT22;37895;53.240;6.572;2023-08-06T10:19:25;21.10;99.90
51855;DHT22;37895;53.240;6.572;2023-08-06T10:22:11;21.20;99.90
51855;DHT22;37895;53.240;6.572;2023-08-06T10:27:12;21.20;99.90
51855;DHT22;37895;53.240;6.572;2023-08-06T10:29:37;21.10;99.90
51855;DHT22;37895;53.240;6.572;2023-08-06T10:32:04;21.20;99.90
51855;DHT22;37895;53.240;6.572;2023-08-06T10:34:59;21.30;99.90
51855;DHT22;37895;53.240;6.572;2023-08-06T10:37:36;21.50;99.90
51855;DHT22;37895;53.240;6.572;2023-08-06T10:40:03;21.50;99.90
51855;DHT22;37895;53.240;6.572;2023-08-06T10:42:29;21.60;99.90
51855;DHT22;37895;53.240;6.572;2023-08-06T10:45:14;21.60;99.90
51855;DHT22;37895;53.240;6.572;2023-08-06T10:47:41;21.70;99.90
51855;DHT22;37895;53.240;6.572;2023-08-06T10:50:10;21.80;99.90
51855;DHT22;37895;53.240;6.572;2023-08-06T10:52:36;21.90;99.90
51855;DHT22;37895;53.240;6.572;2023-08-06T10:55:01;22.00;99.90
51855;DHT22;37895;53.240;6.572;2023-08-06T10:57:27;22.00;99.90
51855;DHT22;37895;53.240;6.572;2023-08-06T10:59:53;22.00;99.90
51855;DHT22;37895;53.240;6.572;2023-08-06T11:02:18;21.90;99.90
51855;DHT22;37895;53.240;6.572;2023-08-06T11:04:44;21.90;99.90
51855;DHT22;37895;53.240;6.572;2023-08-06T11:07:10;22.00;99.90
51855;DHT22;37895;53.240;6.572;2023-08-06T11:09:35;22.10;99.90
51855;DHT22;37895;53.240;6.572;2023-08-06T11:12:01;21.90;99.90
51855;DHT22;37895;53.240;6.572;2023-08-06T11:14:26;22.00;99.90
51855;DHT22;37895;53.240;6.572;2023-08-06T11:16:52;22.00;99.90
51855;DHT22;37895;53.240;6.572;2023-08-06T11:19:17;22.00;99.90
51855;DHT22;37895;53.240;6.572;2023-08-06T11:21:44;21.90;99.90
51855;DHT22;37895;53.240;6.572;2023-08-06T11:24:10;21.90;99.90
51855;DHT22;37895;53.240;6.572;2023-08-06T11:26:36;22.00;99.90
51855;DHT22;37895;53.240;6.572;2023-08-06T11:29:03;22.00;99.90
51855;DHT22;37895;53.240;6.572;2023-08-06T11:31:28;21.90;99.90
51855;DHT22;37895;53.240;6.572;2023-08-06T11:33:54;21.80;99.90
51855;DHT22;37895;53.240;6.572;2023-08-06T11:36:33;21.80;99.90
51855;DHT22;37895;53.240;6.572;2023-08-06T11:39:00;21.80;99.90
51855;DHT22;37895;53.240;6.572;2023-08-06T11:41:31;21.80;99.90
51855;DHT22;37895;53.240;6.572;2023-08-06T11:43:58;21.90;99.90
51855;DHT22;37895;53.240;6.572;2023-08-06T11:46:24;21.50;99.90
51855;DHT22;37895;53.240;6.572;2023-08-06T11:48:57;21.50;99.90
51855;DHT22;37895;53.240;6.572;2023-08-06T11:51:24;21.40;99.90
51855;DHT22;37895;53.240;6.572;2023-08-06T11:53:55;21.30;99.90
51855;DHT22;37895;53.240;6.572;2023-08-06T11:56:21;21.30;99.90
51855;DHT22;37895;53.240;6.572;2023-08-06T11:58:46;21.30;99.90
51855;DHT22;37895;53.240;6.572;2023-08-06T12:01:13;21.10;99.90
51855;DHT22;37895;53.240;6.572;2023-08-06T12:03:40;21.10;99.90
51855;DHT22;37895;53.240;6.572;2023-08-06T12:06:06;21.10;99.90
51855;DHT22;37895;53.240;6.572;2023-08-06T12:08:35;21.10;99.90
51855;DHT22;37895;53.240;6.572;2023-08-06T12:11:01;21.30;99.90
51855;DHT22;37895;53.240;6.572;2023-08-06T12:13:26;21.50;99.90
51855;DHT22;37895;53.240;6.572;2023-08-06T12:15:53;21.50;99.90
51855;DHT22;37895;53.240;6.572;2023-08-06T12:18:19;21.40;99.90
51855;DHT22;37895;53.240;6.572;2023-08-06T12:20:45;21.20;99.90
51855;DHT22;37895;53.240;6.572;2023-08-06T12:23:10;21.10;99.90
51855;DHT22;37895;53.240;6.572;2023-08-06T12:25:40;21.20;99.90
51855;DHT22;37895;53.240;6.572;2023-08-06T12:28:06;21.40;99.90
51855;DHT22;37895;53.240;6.572;2023-08-06T12:30:33;21.50;99.90
51855;DHT22;37895;53.240;6.572;2023-08-06T12:32:58;21.50;99.90
51855;DHT22;37895;53.240;6.572;2023-08-06T12:35:24;21.70;99.90
51855;DHT22;37895;53.240;6.572;2023-08-06T12:37:51;21.60;99.90
51855;DHT22;37895;53.240;6.572;2023-08-06T12:40:22;21.60;99.90
51855;DHT22;37895;53.240;6.572;2023-08-06T12:42:50;21.60;99.90
51855;DHT22;37895;53.240;6.572;2023-08-06T12:45:16;21.60;99.90
51855;DHT22;37895;53.240;6.572;2023-08-06T12:47:41;21.60;99.90
51855;DHT22;37895;53.240;6.572;2023-08-06T12:50:07;21.60;99.90
51855;DHT22;37895;53.240;6.572;2023-08-06T12:52:33;21.60;99.90
51855;DHT22;37895;53.240;6.572;2023-08-06T12:54:59;21.80;99.90
51855;DHT22;37895;53.240;6.572;2023-08-06T12:57:24;21.80;99.90
51855;DHT22;37895;53.240;6.572;2023-08-06T12:59:50;21.80;99.90
51855;DHT22;37895;53.240;6.572;2023-08-06T13:02:15;21.80;99.90
51855;DHT22;37895;53.240;6.572;2023-08-06T13:04:41;21.60;99.90
51855;DHT22;37895;53.240;6.572;2023-08-06T13:07:06;21.60;99.90
51855;DHT22;37895;53.240;6.572;2023-08-06T13:09:32;21.50;99.90
51855;DHT22;37895;53.240;6.572;2023-08-06T13:11:58;21.60;99.90
51855;DHT22;37895;53.240;6.572;2023-08-06T13:14:25;21.60;99.90
51855;DHT22;37895;53.240;6.572;2023-08-06T13:16:51;21.60;99.90
51855;DHT22;37895;53.240;6.572;2023-08-06T13:19:16;21.70;99.90
51855;DHT22;37895;53.240;6.572;2023-08-06T13:24:17;22.00;99.90
51855;DHT22;37895;53.240;6.572;2023-08-06T13:26:42;21.90;99.90
51855;DHT22;37895;53.240;6.572;2023-08-06T13:29:08;21.50;99.90
51855;DHT22;37895;53.240;6.572;2023-08-06T13:31:33;21.30;99.90
51855;DHT22;37895;53.240;6.572;2023-08-06T13:33:59;21.30;99.90
51855;DHT22;37895;53.240;6.572;2023-08-06T13:36:25;21.40;99.90
51855;DHT22;37895;53.240;6.572;2023-08-06T13:38:51;21.40;99.90
51855;DHT22;37895;53.240;6.572;2023-08-06T13:41:17;21.30;99.90
51855;DHT22;37895;53.240;6.572;2023-08-06T13:43:43;21.20;99.90
51855;DHT22;37895;53.240;6.572;2023-08-06T13:46:10;21.30;99.90
51855;DHT22;37895;53.240;6.572;2023-08-06T13:48:40;21.50;99.90
51855;DHT22;37895;53.240;6.572;2023-08-06T13:51:05;21.40;99.90
51855;DHT22;37895;53.240;6.572;2023-08-06T13:53:31;21.50;99.90
51855;DHT22;37895;53.240;6.572;2023-08-06T13:55:56;21.50;99.90
51855;DHT22;37895;53.240;6.572;2023-08-06T13:58:23;21.50;99.90
51855;DHT22;37895;53.240;6.572;2023-08-06T14:00:49;21.50;99.90
51855;DHT22;37895;53.240;6.572;2023-08-06T14:03:15;21.40;99.90
51855;DHT22;37895;53.240;6.572;2023-08-06T14:05:41;21.60;99.90
51855;DHT22;37895;53.240;6.572;2023-08-06T14:08:07;21.70;99.90
51855;DHT22;37895;53.240;6.572;2023-08-06T14:10:32;21.80;99.90
51855;DHT22;37895;53.240;6.572;2023-08-06T14:12:58;21.80;99.90
51855;DHT22;37895;53.240;6.572;2023-08-06T14:15:23;21.70;99.90
51855;DHT22;37895;53.240;6.572;2023-08-06T14:17:49;21.70;99.90
51855;DHT22;37895;53.240;6.572;2023-08-06T14:20:15;21.70;99.90
51855;DHT22;37895;53.240;6.572;2023-08-06T14:22:40;21.60;99.90
51855;DHT22;37895;53.240;6.572;2023-08-06T14:25:06;21.80;99.90
51855;DHT22;37895;53.240;6.572;2023-08-06T14:27:32;21.80;99.90
51855;DHT22;37895;53.240;6.572;2023-08-06T14:29:57;21.80;99.90
51855;DHT22;37895;53.240;6.572;2023-08-06T14:32:23;21.90;99.90
51855;DHT22;37895;53.240;6.572;2023-08-06T14:34:48;21.70;99.90
51855;DHT22;37895;53.240;6.572;2023-08-06T14:37:14;21.80;99.90
51855;DHT22;37895;53.240;6.572;2023-08-06T14:39:40;21.60;99.90
51855;DHT22;37895;53.240;6.572;2023-08-06T14:42:06;21.80;99.90
51855;DHT22;37895;53.240;6.572;2023-08-06T14:44:31;21.60;99.90
51855;DHT22;37895;53.240;6.572;2023-08-06T14:46:57;21.70;99.90
51855;DHT22;37895;53.240;6.572;2023-08-06T14:49:23;21.80;99.90
51855;DHT22;37895;53.240;6.572;2023-08-06T14:51:50;21.70;99.90
51855;DHT22;37895;53.240;6.572;2023-08-06T14:54:15;21.70;99.90
51855;DHT22;37895;53.240;6.572;2023-08-06T14:56:41;21.70;99.90
51855;DHT22;37895;53.240;6.572;2023-08-06T14:59:07;21.30;99.90
51855;DHT22;37895;53.240;6.572;2023-08-06T15:01:32;21.50;99.90
51855;DHT22;37895;53.240;6.572;2023-08-06T15:03:58;21.30;99.90
51855;DHT22;37895;53.240;6.572;2023-08-06T15:06:24;21.30;99.90
51855;DHT22;37895;53.240;6.572;2023-08-06T15:08:50;21.30;99.90
51855;DHT22;37895;53.240;6.572;2023-08-06T15:11:15;21.30;99.90
51855;DHT22;37895;53.240;6.572;2023-08-06T15:13:41;21.40;99.90
51855;DHT22;37895;53.240;6.572;2023-08-06T15:16:06;21.50;99.90
51855;DHT22;37895;53.240;6.572;2023-08-06T15:18:32;21.50;99.90
51855;DHT22;37895;53.240;6.572;2023-08-06T15:20:58;21.50;99.90
51855;DHT22;37895;53.240;6.572;2023-08-06T15:23:23;21.80;99.90
51855;DHT22;37895;53.240;6.572;2023-08-06T15:25:49;21.70;99.90
51855;DHT22;37895;53.240;6.572;2023-08-06T15:28:15;21.80;99.90
51855;DHT22;37895;53.240;6.572;2023-08-06T15:30:43;21.90;99.90